Norlina, North Carolina
Current Conditions -  °F | °C
As of 3:55 AM on Sunday 26 Oct 2014 (Local Time) from KAVC Reporting Station
Scattered Clouds Scattered Clouds  
Wind Chill: 54°   Ceiling: Unl
Heat Index: 54°   Visibility: 10mi
Dew Point: 48°   Wind: 5mph
Humidity: 82%   Direction: 230°SW
Pressure: 29.83"   Gusts: NA
Location:  36.45°N, 78.2°W
Report Text: KAVC 260755Z AUTO 23004KT 10SM SCT090 12/09 A2983 RMK AO2
Loading
Personal Weather Stations






























Interactive Weather Map
Tropical Storm Tracking
New forecast layout! Learn more

10-Day Weather Forecast

Advertisements
Track Severe Weather on mobile